Flight Track Log - Related Links

Times and Time Zones

All times are in EDT time to prevent confusion due to time zone crossing. See the DAL4164 flight status page for this flight to view local times or setup timezone preferences in your user account.

Time Position Orientation Groundspeed Altitude Reporting Facility
EDT Latitude Longitude Course Direction KTS MPH feet Rate Location/Type
Sun 09:38:06 PM 39.0333 -84.6500 180° South 180 207 1,400  Level Cincinnati TRACON
Sun 09:38:24 PM 39.0167 -84.6500 180° South 164 189 2,300 2,769 Climbing Cincinnati TRACON
Sun 09:39:24 PM 38.9667 -84.6333 165° South 209 241 5,000 2,105 Climbing Cincinnati TRACON
Sun 09:40:18 PM 38.9500 -84.5500 104° East 279 321 6,300 1,982 Climbing Cincinnati TRACON
Sun 09:41:16 PM 38.9381 -84.4708 101° East 276 318 8,700 2,370 Climbing Indianapolis Center
Sun 09:42:17 PM 38.9236 -84.3706 100° East 282 325 11,000 1,756 Climbing Indianapolis Center
Sun 09:43:19 PM 38.9072 -84.2553 100° East 320 368 12,300 1,854 Climbing Indianapolis Center
Sun 09:44:20 PM 38.8856 -84.1033 100° East 353 406 14,800 2,098 Climbing Indianapolis Center
Sun 09:45:22 PM 38.8628 -83.9736 103° East 369 425 16,600 1,805 Climbing Indianapolis Center
Sun 09:46:23 PM 38.8328 -83.8414 106° East 380 437 18,500 1,672 Climbing Indianapolis Center
Sun 09:47:24 PM 38.8036 -83.7072 106° East 388 447 20,000 1,317 Climbing Indianapolis Center
Sun 09:48:26 PM 38.7736 -83.5681 105° East 399 459 21,200 1,268 Climbing Indianapolis Center
Sun 09:49:27 PM 38.7653 -83.4153 94° East 424 488 22,600 1,328 Climbing Indianapolis Center
Sun 09:50:28 PM 38.7636 -83.2619 91° East 430 495 23,900 1,268 Climbing Indianapolis Center
Sun 09:51:30 PM 38.7636 -83.0942 90° East 436 502 25,200 1,171 Climbing Indianapolis Center
Sun 09:52:31 PM 38.7625 -82.9333 90° East 446 513 26,300 1,082 Climbing Indianapolis Center
Sun 09:53:32 PM 38.7211 -82.7775 109° East 463 533 27,400 1,171 Climbing Indianapolis Center
Sun 09:54:34 PM 38.6553 -82.5961 115° Southeast 466 536 28,700 1,171 Climbing Indianapolis Center
Sun 09:55:35 PM 38.5994 -82.4444 115° Southeast 470 541 29,800 1,082 Climbing Indianapolis Center
Sun 09:56:36 PM 38.5431 -82.2903 115° Southeast 475 547 30,900 1,220 Climbing Indianapolis Center
Sun 09:57:38 PM 38.4858 -82.1378 116° Southeast 478 550 32,300 1,171 Climbing Indianapolis Center
Sun 09:58:39 PM 38.4308 -81.9889 115° Southeast 475 547 33,300 984 Climbing Indianapolis Center
Sun 09:59:40 PM 38.3742 -81.8381 116° Southeast 475 547 34,300 836 Climbing Indianapolis Center
Sun 10:00:41 PM 38.3467 -81.6764 102° East 478 550 35,000 341 Climbing Indianapolis Center
Sun 10:01:43 PM 38.3411 -81.5067 92° East 479 551 35,000  Level Indianapolis Center
Sun 10:02:44 PM 38.3342 -81.2967 92° East 496 571 35,000  Level Indianapolis Center
Sun 10:03:45 PM 38.3272 -81.1200 93° East 499 574 35,000  Level Indianapolis Center
Sun 10:04:47 PM 38.3208 -80.9408 93° East 504 580 35,000  Level Indianapolis Center
Sun 10:05:48 PM 38.3147 -80.7619 92° East 507 583 35,000 -541 Level Indianapolis Center
Sun 10:06:49 PM 38.3083 -80.5808 93° East 508 585 33,900 -1,250 Descending Indianapolis Center
Sun 10:07:24 PM 38.3056 -80.4711 92° East 509 586 33,000 -1,361 Descending Washington Center
Sun 10:08:26 PM 38.2981 -80.2933 93° East 509 586 31,700 -1,008 Descending Washington Center
Sun 10:09:23 PM 38.2922 -80.1183 92° East 499 574 31,000 -513 Descending Washington Center
Sun 10:10:23 PM 38.3047 -79.9497 85° East 493 567 30,700 -689 Descending Washington Center
Sun 10:11:25 PM 38.3356 -79.7875 76° East 479 551 29,600 -1,100 Descending Washington Center
Sun 10:12:23 PM 38.3661 -79.6250 76° East 479 551 28,500 -1,119 Descending Washington Center
Sun 10:13:23 PM 38.3964 -79.4675 76° East 474 545 27,400 -1,082 Descending Washington Center
Sun 10:14:25 PM 38.4244 -79.3100 77° East 461 531 26,300 -1,100 Descending Washington Center
Sun 10:15:23 PM 38.4519 -79.1550 77° East 455 524 25,200 -1,109 Descending Washington Center
Sun 10:16:24 PM 38.4792 -79.0050 77° East 448 516 24,100 -1,041 Descending Washington Center
Sun 10:17:24 PM 38.4975 -78.8758 80° East 428 493 23,100 -1,059 Descending Washington Center
Sun 10:18:23 PM 38.5200 -78.7389 78° East 417 480 22,000 -1,100 Descending Washington Center
Sun 10:19:24 PM 38.5403 -78.5992 79° East 405 466 20,900 -1,180 Descending Washington Center
Sun 10:20:25 PM 38.5644 -78.4619 77° East 400 460 19,600 -1,412 Descending Washington Center
Sun 10:21:23 PM 38.5842 -78.3272 79° East 393 452 18,100 -1,513 Descending Washington Center
Sun 10:22:24 PM 38.6142 -78.1981 73° East 383 441 16,600 -1,561 Descending Washington Center
Sun 10:23:26 PM 38.6519 -78.0825 67° East 365 420 14,900 -1,650 Descending Washington Center
Sun 10:24:24 PM 38.6875 -77.9719 68° East 351 404 13,300 -1,412 Descending Washington Center
Sun 10:25:25 PM 38.7208 -77.8694 67° East 327 376 12,100 -1,140 Descending Washington Center
Sun 10:26:25 PM 38.7664 -77.7803 57° Northeast 302 348 11,000 -550 Descending Washington Center
Sun 10:27:25 PM 38.8197 -77.7019 49° Northeast 295 339 11,000 -655 Level Washington Center
Sun 10:28:24 PM 38.8819 -77.6103 49° Northeast 295 339 9,700 -1,322 Descending Washington Center
Sun 10:29:23 PM 38.9289 -77.5422 48° Northeast 290 334 8,400 -1,404 Descending Washington Center
Sun 10:30:45 PM 38.9667 -77.4167 69° East 260 299 6,400 -1,099 Descending Potomac TRACON
Sun 10:31:45 PM 39.0000 -77.3333 63° Northeast 254 292 5,800 -1,150 Descending Potomac TRACON
Sun 10:32:45 PM 39.0167 -77.2500 76° East 257 296 4,100 -1,421 Descending Potomac TRACON
Sun 10:33:39 PM 38.9833 -77.1833 123° Southeast 248 285 3,100 -895 Descending Potomac TRACON
Sun 10:34:39 PM 38.9333 -77.1333 142° Southeast 197 227 2,400 -1,000 Descending Potomac TRACON
Sun 10:35:39 PM 38.9000 -77.0833 131° Southeast 174 200 1,100 -905 Descending Potomac TRACON
Sun 10:36:45 PM 38.8833 -77.0500 123° Southeast 146 168 500 -545 Descending Potomac TRACON
Sun 10:38:00 PM 38.8519 -77.0377 169° South  Level Estimated
Sun 10:45:00 PM 38.8500 -77.0333 North  Level FlightAware Approximate
Sun 10:46:00 PM 38.8519 -77.0377 169° South  Level Estimated

Login

Don't have an account? Register now (free) for customized features, flight alerts, and more!